Time,TemperatureF,DewpointF,PressureIn,WindDirection,WindDirectionDegrees,WindSpeedMPH,WindSpeedGustMPH,Humidity,HourlyPrecipIn,Conditions,Clouds,dailyrainin,SoftwareType,DateUTC
2013-01-22 00:02:00,38.8,33.5,30.11,NNW,337,0.0,0.0,81,0.00,,,0.00,WUHU21623XXSP,2013-01-22 08:02:00,
2013-01-22 00:07:00,38.7,33.4,30.11,NNW,337,0.0,0.0,81,0.00,,,0.00,WUHU21623XXSP,2013-01-22 08:07:00,
2013-01-22 00:12:00,38.5,33.2,30.11,NNW,337,0.0,0.0,81,0.00,,,0.00,WUHU21623XXSP,2013-01-22 08:12:00,
2013-01-22 00:17:00,38.5,33.2,30.11,NNW,337,0.0,0.0,81,0.00,,,0.00,WUHU21623XXSP,2013-01-22 08:17:00,
2013-01-22 00:22:00,38.3,33.0,30.11,NNW,337,0.0,0.0,81,0.00,,,0.00,WUHU21623XXSP,2013-01-22 08:22:00,
2013-01-22 00:27:00,38.1,33.1,30.11,NNW,337,0.0,0.0,82,0.00,,,0.00,WUHU21623XXSP,2013-01-22 08:27:00,
2013-01-22 00:32:00,38.1,33.1,30.10,NNW,337,0.0,0.0,82,0.00,,,0.00,WUHU21623XXSP,2013-01-22 08:32:00,
2013-01-22 00:37:00,37.9,32.9,30.11,NNW,337,0.0,0.0,82,0.00,,,0.00,WUHU21623XXSP,2013-01-22 08:37:00,
2013-01-22 00:42:00,37.9,32.9,30.11,NNW,337,0.0,0.0,82,0.00,,,0.00,WUHU21623XXSP,2013-01-22 08:42:00,
2013-01-22 00:47:00,37.8,32.8,30.11,NNW,337,0.0,0.0,82,0.00,,,0.00,WUHU21623XXSP,2013-01-22 08:47:00,
2013-01-22 00:52:00,37.8,32.8,30.11,NNW,337,0.0,0.0,82,0.00,,,0.00,WUHU21623XXSP,2013-01-22 08:52:00,
2013-01-22 00:57:00,37.6,32.6,30.11,NNW,337,0.0,0.0,82,0.00,,,0.00,WUHU21623XXSP,2013-01-22 08:57:00,
2013-01-22 01:02:00,37.4,32.4,30.11,NNW,337,0.0,0.0,82,0.00,,,0.00,WUHU21623XXSP,2013-01-22 09:02:00,
2013-01-22 01:07:00,37.4,32.4,30.11,NNW,337,0.0,0.0,82,0.00,,,0.00,WUHU21623XXSP,2013-01-22 09:07:00,
2013-01-22 01:12:00,37.2,32.2,30.11,NNW,337,0.0,0.0,82,0.00,,,0.00,WUHU21623XXSP,2013-01-22 09:12:00,
2013-01-22 01:17:00,37.2,32.2,30.10,NNW,337,0.0,0.0,82,0.00,,,0.00,WUHU21623XXSP,2013-01-22 09:17:00,
2013-01-22 01:22:00,37.0,32.0,30.11,NNW,337,0.0,0.0,82,0.00,,,0.00,WUHU21623XXSP,2013-01-22 09:22:00,
2013-01-22 01:27:00,37.0,32.3,30.11,NNW,337,0.0,0.0,83,0.00,,,0.00,WUHU21623XXSP,2013-01-22 09:27:00,
2013-01-22 01:32:00,37.0,32.3,30.11,NNW,337,0.0,0.0,83,0.00,,,0.00,WUHU21623XXSP,2013-01-22 09:32:00,
2013-01-22 01:37:00,36.9,32.1,30.11,NNW,337,0.0,0.0,83,0.00,,,0.00,WUHU21623XXSP,2013-01-22 09:37:00,
2013-01-22 01:42:00,36.9,32.1,30.11,NNW,337,0.0,0.0,83,0.00,,,0.00,WUHU21623XXSP,2013-01-22 09:42:00,
2013-01-22 01:47:00,36.9,32.1,30.11,NNW,337,0.0,0.0,83,0.00,,,0.00,WUHU21623XXSP,2013-01-22 09:47:00,
2013-01-22 01:52:00,36.7,32.0,30.11,NNW,337,0.0,0.0,83,0.00,,,0.00,WUHU21623XXSP,2013-01-22 09:52:00,
2013-01-22 01:57:00,36.7,32.0,30.11,NNW,337,0.0,0.0,83,0.00,,,0.00,WUHU21623XXSP,2013-01-22 09:57:00,
2013-01-22 02:02:00,36.7,32.0,30.10,NNW,337,0.0,0.0,83,0.00,,,0.00,WUHU21623XXSP,2013-01-22 10:02:00,
2013-01-22 02:07:00,36.5,31.8,30.10,NNW,337,0.0,0.0,83,0.00,,,0.00,WUHU21623XXSP,2013-01-22 10:07:00,
2013-01-22 02:12:00,36.3,31.6,30.11,NNW,337,0.0,0.0,83,0.00,,,0.00,WUHU21623XXSP,2013-01-22 10:12:00,
2013-01-22 02:17:00,36.3,31.9,30.11,NNW,337,0.0,0.0,84,0.00,,,0.00,WUHU21623XXSP,2013-01-22 10:17:00,
2013-01-22 02:22:00,36.3,31.9,30.11,NNW,337,0.0,0.0,84,0.00,,,0.00,WUHU21623XXSP,2013-01-22 10:22:00,
2013-01-22 02:27:00,36.1,31.4,30.11,NNW,337,0.0,0.0,83,0.00,,,0.00,WUHU21623XXSP,2013-01-22 10:27:00,
2013-01-22 02:32:00,36.0,31.2,30.11,NNW,337,0.0,0.0,83,0.00,,,0.00,WUHU21623XXSP,2013-01-22 10:32:00,
2013-01-22 02:37:00,36.0,31.2,30.11,NNW,337,0.0,0.0,83,0.00,,,0.00,WUHU21623XXSP,2013-01-22 10:37:00,
2013-01-22 02:42:00,35.8,31.1,30.11,NNW,337,0.0,0.0,83,0.00,,,0.00,WUHU21623XXSP,2013-01-22 10:42:00,
2013-01-22 02:47:00,35.8,31.1,30.11,NNW,337,0.0,0.0,83,0.00,,,0.00,WUHU21623XXSP,2013-01-22 10:47:00,
2013-01-22 02:52:00,35.8,31.4,30.10,NNW,337,0.0,0.0,84,0.00,,,0.00,WUHU21623XXSP,2013-01-22 10:52:00,
2013-01-22 02:57:00,35.8,31.4,30.10,NNW,337,0.0,0.0,84,0.00,,,0.00,WUHU21623XXSP,2013-01-22 10:57:00,
2013-01-22 03:02:00,35.8,31.4,30.10,NNW,337,0.0,0.0,84,0.00,,,0.00,WUHU21623XXSP,2013-01-22 11:02:00,
2013-01-22 03:07:00,35.6,31.2,30.10,NNW,337,0.0,0.0,84,0.00,,,0.00,WUHU21623XXSP,2013-01-22 11:07:00,
2013-01-22 03:12:00,35.4,31.0,30.10,NNW,337,0.0,0.0,84,0.00,,,0.00,WUHU21623XXSP,2013-01-22 11:12:00,
2013-01-22 03:17:00,35.4,31.0,30.10,NNW,337,0.0,0.0,84,0.00,,,0.00,WUHU21623XXSP,2013-01-22 11:17:00,
2013-01-22 03:22:00,35.4,31.0,30.10,NNW,337,0.0,0.0,84,0.00,,,0.00,WUHU21623XXSP,2013-01-22 11:22:00,
2013-01-22 03:27:00,35.4,31.0,30.09,NNW,337,0.0,0.0,84,0.00,,,0.00,WUHU21623XXSP,2013-01-22 11:27:00,
2013-01-22 03:32:00,35.4,31.0,30.09,NNW,337,0.0,0.0,84,0.00,,,0.00,WUHU21623XXSP,2013-01-22 11:32:00,
2013-01-22 03:37:00,35.4,31.0,30.09,NNW,337,0.0,0.0,84,0.00,,,0.00,WUHU21623XXSP,2013-01-22 11:37:00,
2013-01-22 03:42:00,35.4,31.0,30.09,NNW,337,0.0,0.0,84,0.00,,,0.00,WUHU21623XXSP,2013-01-22 11:42:00,
2013-01-22 03:47:00,35.4,31.3,30.09,NNW,337,0.0,0.0,85,0.00,,,0.00,WUHU21623XXSP,2013-01-22 11:47:00,
2013-01-22 03:52:00,35.4,31.3,30.09,NNW,337,0.0,0.0,85,0.00,,,0.00,WUHU21623XXSP,2013-01-22 11:52:00,
2013-01-22 03:57:00,35.4,31.3,30.09,NNW,337,0.0,0.0,85,0.00,,,0.00,WUHU21623XXSP,2013-01-22 11:57:00,
2013-01-22 04:02:00,35.2,31.1,30.09,NNW,337,0.0,0.0,85,0.00,,,0.00,WUHU21623XXSP,2013-01-22 12:02:00,
2013-01-22 04:07:00,35.2,31.1,30.09,NNW,337,0.0,0.0,85,0.00,,,0.00,WUHU21623XXSP,2013-01-22 12:07:00,
2013-01-22 04:12:00,35.2,31.1,30.09,NNW,337,0.0,0.0,85,0.00,,,0.00,WUHU21623XXSP,2013-01-22 12:12:00,
2013-01-22 04:17:00,35.2,31.1,30.09,NNW,337,0.0,0.0,85,0.00,,,0.00,WUHU21623XXSP,2013-01-22 12:17:00,
2013-01-22 04:22:00,35.2,31.1,30.09,NNW,337,0.0,0.0,85,0.00,,,0.00,WUHU21623XXSP,2013-01-22 12:22:00,
2013-01-22 04:27:00,35.2,31.1,30.09,NNW,337,0.0,0.0,85,0.00,,,0.00,WUHU21623XXSP,2013-01-22 12:27:00,
2013-01-22 04:32:00,35.2,31.4,30.09,NNW,337,0.0,0.0,86,0.00,,,0.00,WUHU21623XXSP,2013-01-22 12:32:00,
2013-01-22 04:37:00,35.2,31.4,30.09,NNW,337,0.0,0.0,86,0.00,,,0.00,WUHU21623XXSP,2013-01-22 12:37:00,
2013-01-22 04:42:00,35.2,31.4,30.09,NNW,337,0.0,0.0,86,0.00,,,0.00,WUHU21623XXSP,2013-01-22 12:42:00,
2013-01-22 04:47:00,34.9,30.7,30.09,NNW,337,0.0,0.0,85,0.00,,,0.00,WUHU21623XXSP,2013-01-22 12:47:00,
2013-01-22 04:52:00,34.9,30.7,30.09,NNW,337,0.0,0.0,85,0.00,,,0.00,WUHU21623XXSP,2013-01-22 12:52:00,
2013-01-22 04:57:00,34.9,30.7,30.09,NNW,337,0.0,0.0,85,0.00,,,0.00,WUHU21623XXSP,2013-01-22 12:57:00,
2013-01-22 05:02:00,34.9,30.7,30.10,NNW,337,0.0,0.0,85,0.00,,,0.00,WUHU21623XXSP,2013-01-22 13:02:00,
2013-01-22 05:07:00,34.7,30.6,30.10,NNW,337,0.0,0.0,85,0.00,,,0.00,WUHU21623XXSP,2013-01-22 13:07:00,
2013-01-22 05:12:00,34.5,30.4,30.09,NNW,337,0.0,0.0,85,0.00,,,0.00,WUHU21623XXSP,2013-01-22 13:12:00,
2013-01-22 05:17:00,34.5,30.4,30.09,NNW,337,0.0,0.0,85,0.00,,,0.00,WUHU21623XXSP,2013-01-22 13:17:00,
2013-01-22 05:22:00,34.3,30.2,30.10,NNW,337,0.0,0.0,85,0.00,,,0.00,WUHU21623XXSP,2013-01-22 13:22:00,
2013-01-22 05:27:00,34.3,30.2,30.10,NNW,337,0.0,0.0,85,0.00,,,0.00,WUHU21623XXSP,2013-01-22 13:27:00,
2013-01-22 05:32:00,34.3,30.2,30.10,NNW,337,0.0,0.0,85,0.00,,,0.00,WUHU21623XXSP,2013-01-22 13:32:00,
2013-01-22 05:37:00,34.3,30.2,30.10,NNW,337,0.0,0.0,85,0.00,,,0.00,WUHU21623XXSP,2013-01-22 13:37:00,
2013-01-22 05:42:00,34.3,30.2,30.10,NNW,337,0.0,0.0,85,0.00,,,0.00,WUHU21623XXSP,2013-01-22 13:42:00,
2013-01-22 05:47:00,34.3,30.2,30.10,NNW,337,0.0,0.0,85,0.00,,,0.00,WUHU21623XXSP,2013-01-22 13:47:00,
2013-01-22 05:52:00,34.2,30.3,30.10,NNW,337,0.0,0.0,86,0.00,,,0.00,WUHU21623XXSP,2013-01-22 13:52:00,
2013-01-22 05:57:00,34.0,30.3,30.10,NNW,337,0.0,0.0,86,0.00,,,0.00,WUHU21623XXSP,2013-01-22 13:57:00,
2013-01-22 06:02:00,34.0,30.1,30.10,NNW,337,0.0,0.0,86,0.00,,,0.00,WUHU21623XXSP,2013-01-22 14:02:00,
2013-01-22 06:07:00,33.8,29.9,30.10,NNW,337,0.0,0.0,86,0.00,,,0.00,WUHU21623XXSP,2013-01-22 14:07:00,
2013-01-22 06:12:00,33.8,29.9,30.10,NNW,337,0.0,0.0,86,0.00,,,0.00,WUHU21623XXSP,2013-01-22 14:12:00,
2013-01-22 06:17:00,33.8,29.9,30.11,NNW,337,0.0,0.0,86,0.00,,,0.00,WUHU21623XXSP,2013-01-22 14:17:00,
2013-01-22 06:22:00,33.6,29.8,30.10,NNW,337,0.0,0.0,86,0.00,,,0.00,WUHU21623XXSP,2013-01-22 14:22:00,
2013-01-22 06:27:00,33.6,29.8,30.10,NNW,337,0.0,0.0,86,0.00,,,0.00,WUHU21623XXSP,2013-01-22 14:27:00,
2013-01-22 06:32:00,33.6,29.8,30.10,NNW,337,0.0,0.0,86,0.00,,,0.00,WUHU21623XXSP,2013-01-22 14:32:00,
2013-01-22 06:38:00,33.6,29.8,30.11,NNW,337,0.0,0.0,86,0.00,,,0.00,WUHU21623XXSP,2013-01-22 14:38:00,
2013-01-22 06:43:00,33.6,29.8,30.11,NNW,337,0.0,0.0,86,0.00,,,0.00,WUHU21623XXSP,2013-01-22 14:43:00,
2013-01-22 06:48:00,33.6,29.8,30.11,NNW,337,0.0,0.0,86,0.00,,,0.00,WUHU21623XXSP,2013-01-22 14:48:00,
2013-01-22 06:54:00,33.6,29.8,30.11,NNW,337,0.0,0.0,86,0.00,,,0.00,WUHU21623XXSP,2013-01-22 14:54:00,
2013-01-22 06:59:00,33.6,30.1,30.11,NNW,337,0.0,0.0,87,0.00,,,0.00,WUHU21623XXSP,2013-01-22 14:59:00,
2013-01-22 07:04:00,33.6,30.1,30.11,NNW,337,0.0,0.0,87,0.00,,,0.00,WUHU21623XXSP,2013-01-22 15:04:00,
2013-01-22 07:09:00,33.6,30.1,30.11,NNW,337,0.0,0.0,87,0.00,,,0.00,WUHU21623XXSP,2013-01-22 15:09:00,
2013-01-22 07:14:00,33.6,30.1,30.11,NNW,337,0.0,0.0,87,0.00,,,0.00,WUHU21623XXSP,2013-01-22 15:14:00,
2013-01-22 07:19:00,33.4,29.9,30.11,NNW,337,0.0,0.0,87,0.00,,,0.00,WUHU21623XXSP,2013-01-22 15:19:00,
2013-01-22 07:24:00,33.6,30.1,30.11,NNW,337,0.0,0.0,87,0.00,,,0.00,WUHU21623XXSP,2013-01-22 15:24:00,
2013-01-22 07:29:00,33.6,30.1,30.11,NNW,337,0.0,0.0,87,0.00,,,0.00,WUHU21623XXSP,2013-01-22 15:29:00,
2013-01-22 07:34:00,33.6,30.1,30.11,NNW,337,0.0,0.0,87,0.00,,,0.00,WUHU21623XXSP,2013-01-22 15:34:00,
2013-01-22 07:39:00,33.6,30.1,30.11,NNW,337,0.0,0.0,87,0.00,,,0.00,WUHU21623XXSP,2013-01-22 15:39:00,
2013-01-22 07:44:00,33.6,30.1,30.11,NNW,337,0.0,0.0,87,0.00,,,0.00,WUHU21623XXSP,2013-01-22 15:44:00,
2013-01-22 07:49:00,33.6,30.1,30.12,NNW,337,0.0,0.0,87,0.00,,,0.00,WUHU21623XXSP,2013-01-22 15:49:00,
2013-01-22 07:54:00,33.6,30.1,30.12,NNW,337,0.0,0.0,87,0.00,,,0.00,WUHU21623XXSP,2013-01-22 15:54:00,
2013-01-22 07:59:00,34.0,30.4,30.12,NNW,337,0.0,0.0,87,0.00,,,0.00,WUHU21623XXSP,2013-01-22 15:59:00,
2013-01-22 08:04:00,34.0,30.4,30.12,NNW,337,0.0,0.0,87,0.00,,,0.00,WUHU21623XXSP,2013-01-22 16:04:00,
2013-01-22 08:09:00,34.3,30.8,30.12,NNW,337,0.0,0.0,87,0.00,,,0.00,WUHU21623XXSP,2013-01-22 16:09:00,
2013-01-22 08:14:00,34.3,30.8,30.12,NNW,337,0.0,0.0,87,0.00,,,0.00,WUHU21623XXSP,2013-01-22 16:14:00,
2013-01-22 08:19:00,34.7,31.4,30.12,NNW,337,0.0,0.0,88,0.00,,,0.00,WUHU21623XXSP,2013-01-22 16:19:00,
2013-01-22 08:24:00,35.1,31.8,30.12,NNW,337,0.0,0.0,88,0.00,,,0.00,WUHU21623XXSP,2013-01-22 16:24:00,
2013-01-22 08:29:00,35.4,32.1,30.12,NNW,337,0.0,0.0,88,0.00,,,0.00,WUHU21623XXSP,2013-01-22 16:29:00,
2013-01-22 08:34:00,35.8,32.5,30.12,NNW,337,0.0,0.0,88,0.00,,,0.00,WUHU21623XXSP,2013-01-22 16:34:00,
2013-01-22 08:39:00,36.1,32.9,30.12,NNW,337,0.0,0.0,88,0.00,,,0.00,WUHU21623XXSP,2013-01-22 16:39:00,
2013-01-22 08:44:00,36.9,33.9,30.11,NNW,337,0.0,0.0,89,0.00,,,0.00,WUHU21623XXSP,2013-01-22 16:44:00,
2013-01-22 08:49:00,37.4,34.4,30.12,NNW,337,0.0,0.0,89,0.00,,,0.00,WUHU21623XXSP,2013-01-22 16:49:00,
2013-01-22 08:54:00,37.9,35.0,30.11,NNW,337,0.0,0.0,89,0.00,,,0.00,WUHU21623XXSP,2013-01-22 16:54:00,
2013-01-22 08:59:00,38.8,35.5,30.12,NNW,337,0.0,0.0,89,0.00,,,0.00,WUHU21623XXSP,2013-01-22 16:59:00,
2013-01-22 09:04:00,39.4,36.4,30.12,NNW,337,0.0,0.0,89,0.00,,,0.00,WUHU21623XXSP,2013-01-22 17:04:00,
2013-01-22 09:09:00,39.9,36.9,30.12,NNW,337,0.0,0.0,89,0.00,,,0.00,WUHU21623XXSP,2013-01-22 17:09:00,
2013-01-22 09:14:00,41.0,38.0,30.11,NNW,337,0.0,0.0,89,0.00,,,0.00,WUHU21623XXSP,2013-01-22 17:14:00,
2013-01-22 09:19:00,41.7,38.7,30.11,NNW,337,0.0,0.0,89,0.00,,,0.00,WUHU21623XXSP,2013-01-22 17:19:00,
2013-01-22 09:24:00,42.4,39.4,30.11,NNW,337,0.0,0.0,89,0.00,,,0.00,WUHU21623XXSP,2013-01-22 17:24:00,
2013-01-22 09:29:00,43.7,40.4,30.10,NNW,337,0.0,0.0,88,0.00,,,0.00,WUHU21623XXSP,2013-01-22 17:29:00,
2013-01-22 09:34:00,44.4,40.8,30.11,NNW,337,0.0,0.0,87,0.00,,,0.00,WUHU21623XXSP,2013-01-22 17:34:00,
2013-01-22 09:39:00,45.0,41.3,30.10,NNW,337,0.0,0.0,87,0.00,,,0.00,WUHU21623XXSP,2013-01-22 17:39:00,
2013-01-22 09:44:00,45.7,41.8,30.10,NNW,337,0.0,0.0,86,0.00,,,0.00,WUHU21623XXSP,2013-01-22 17:44:00,
2013-01-22 09:49:00,46.2,42.0,30.11,NNW,337,0.0,0.0,85,0.00,,,0.00,WUHU21623XXSP,2013-01-22 17:49:00,
2013-01-22 09:54:00,46.9,42.0,30.10,NNW,337,0.0,0.0,83,0.00,,,0.00,WUHU21623XXSP,2013-01-22 17:54:00,
2013-01-22 09:59:00,47.8,42.6,30.11,NNW,337,0.0,0.0,82,0.00,,,0.00,WUHU21623XXSP,2013-01-22 17:59:00,
2013-01-22 10:04:00,48.4,42.1,30.10,NNW,337,0.0,0.0,79,0.00,,,0.00,WUHU21623XXSP,2013-01-22 18:04:00,
2013-01-22 10:09:00,48.9,42.1,30.10,NNW,337,0.0,0.0,78,0.00,,,0.00,WUHU21623XXSP,2013-01-22 18:09:00,
2013-01-22 10:14:00,49.8,42.5,30.10,NNW,337,0.0,0.0,76,0.00,,,0.00,WUHU21623XXSP,2013-01-22 18:14:00,
2013-01-22 10:19:00,50.2,42.2,30.10,NNW,337,0.0,0.0,74,0.00,,,0.00,WUHU21623XXSP,2013-01-22 18:19:00,
2013-01-22 10:24:00,50.7,42.4,30.11,NNW,337,0.0,0.0,73,0.00,,,0.00,WUHU21623XXSP,2013-01-22 18:24:00,
2013-01-22 10:29:00,51.3,42.2,30.11,NNW,337,0.0,0.0,71,0.00,,,0.00,WUHU21623XXSP,2013-01-22 18:29:00,
2013-01-22 10:34:00,51.6,42.6,30.11,NNW,337,0.0,0.0,70,0.00,,,0.00,WUHU21623XXSP,2013-01-22 18:34:00,
2013-01-22 10:39:00,52.2,42.4,30.11,NNW,337,0.0,0.0,69,0.00,,,0.00,WUHU21623XXSP,2013-01-22 18:39:00,
2013-01-22 10:44:00,52.7,41.6,30.11,NNW,337,0.0,0.0,66,0.00,,,0.00,WUHU21623XXSP,2013-01-22 18:44:00,
2013-01-22 10:49:00,52.9,41.4,30.11,NNW,337,0.0,0.0,65,0.00,,,0.00,WUHU21623XXSP,2013-01-22 18:49:00,
2013-01-22 10:54:00,53.4,41.5,30.11,NNW,337,0.0,0.0,64,0.00,,,0.00,WUHU21623XXSP,2013-01-22 18:54:00,
2013-01-22 10:59:00,54.1,41.8,30.10,NNW,337,0.0,0.0,63,0.00,,,0.00,WUHU21623XXSP,2013-01-22 18:59:00,
2013-01-22 11:04:00,54.5,41.3,30.10,NNW,337,0.0,0.0,61,0.00,,,0.00,WUHU21623XXSP,2013-01-22 19:04:00,
2013-01-22 11:09:00,55.0,40.9,30.10,NNW,337,0.0,5.1,59,0.00,,,0.00,WUHU21623XXSP,2013-01-22 19:09:00,
2013-01-22 11:14:00,55.6,41.4,30.10,NNW,337,0.0,5.1,59,0.00,,,0.00,WUHU21623XXSP,2013-01-22 19:14:00,
2013-01-22 11:19:00,55.9,41.3,30.10,NNW,337,0.0,0.0,58,0.00,,,0.00,WUHU21623XXSP,2013-01-22 19:19:00,
2013-01-22 11:24:00,56.1,41.5,30.10,NNW,337,0.0,0.0,58,0.00,,,0.00,WUHU21623XXSP,2013-01-22 19:24:00,
2013-01-22 11:29:00,56.8,41.8,30.09,NNW,337,0.0,0.0,57,0.00,,,0.00,WUHU21623XXSP,2013-01-22 19:29:00,
2013-01-22 11:34:00,57.0,41.5,30.09,NNW,337,0.0,0.0,56,0.00,,,0.00,WUHU21623XXSP,2013-01-22 19:34:00,
2013-01-22 11:39:00,57.0,41.0,30.09,NNW,337,0.0,0.0,55,0.00,,,0.00,WUHU21623XXSP,2013-01-22 19:39:00,
2013-01-22 11:44:00,57.7,41.2,30.09,North,0,0.0,0.0,54,0.00,,,0.00,WUHU21623XXSP,2013-01-22 19:44:00,
2013-01-22 11:49:00,58.1,41.5,30.08,North,0,0.0,0.0,54,0.00,,,0.00,WUHU21623XXSP,2013-01-22 19:49:00,
2013-01-22 11:54:00,58.6,42.0,30.08,North,0,0.0,0.0,54,0.00,,,0.00,WUHU21623XXSP,2013-01-22 19:54:00,
2013-01-22 11:59:00,58.8,41.2,30.08,North,0,0.0,0.0,52,0.00,,,0.00,WUHU21623XXSP,2013-01-22 19:59:00,
2013-01-22 12:04:00,59.5,41.4,30.08,WNW,292,0.0,4.5,51,0.00,,,0.00,WUHU21623XXSP,2013-01-22 20:04:00,
2013-01-22 12:09:00,59.7,41.1,30.08,NNW,337,0.0,4.5,50,0.00,,,0.00,WUHU21623XXSP,2013-01-22 20:09:00,
2013-01-22 12:14:00,60.4,41.2,30.07,North,0,0.0,0.0,49,0.00,,,0.00,WUHU21623XXSP,2013-01-22 20:14:00,
2013-01-22 12:19:00,60.6,41.3,30.07,North,0,0.0,0.0,49,0.00,,,0.00,WUHU21623XXSP,2013-01-22 20:19:00,
2013-01-22 12:24:00,61.0,41.1,30.07,North,0,0.0,0.0,48,0.00,,,0.00,WUHU21623XXSP,2013-01-22 20:24:00,
2013-01-22 12:29:00,61.5,41.0,30.06,North,0,0.0,0.0,47,0.00,,,0.00,WUHU21623XXSP,2013-01-22 20:29:00,
2013-01-22 12:34:00,61.7,41.2,30.06,SSW,202,3.4,3.4,47,0.00,,,0.00,WUHU21623XXSP,2013-01-22 20:34:00,
2013-01-22 12:39:00,62.1,40.9,30.06,NNW,337,0.0,3.4,46,0.00,,,0.00,WUHU21623XXSP,2013-01-22 20:39:00,
2013-01-22 12:44:00,62.4,40.1,30.05,North,0,0.0,0.0,44,0.00,,,0.00,WUHU21623XXSP,2013-01-22 20:44:00,
2013-01-22 12:49:00,62.4,40.7,30.05,NNW,337,0.0,8.5,45,0.00,,,0.00,WUHU21623XXSP,2013-01-22 20:49:00,
2013-01-22 12:54:00,62.4,40.7,30.05,NNW,337,0.0,8.5,45,0.00,,,0.00,WUHU21623XXSP,2013-01-22 20:54:00,
2013-01-22 12:59:00,62.6,40.8,30.05,North,0,0.0,0.0,45,0.00,,,0.00,WUHU21623XXSP,2013-01-22 20:59:00,
2013-01-22 13:04:00,62.6,40.8,30.05,North,0,0.0,0.0,45,0.00,,,0.00,WUHU21623XXSP,2013-01-22 21:04:00,
2013-01-22 13:09:00,62.4,40.7,30.04,North,0,0.0,0.0,45,0.00,,,0.00,WUHU21623XXSP,2013-01-22 21:09:00,
2013-01-22 13:14:00,62.4,40.7,30.04,North,0,0.0,0.0,45,0.00,,,0.00,WUHU21623XXSP,2013-01-22 21:14:00,
2013-01-22 13:19:00,62.4,41.2,30.05,North,0,0.0,0.0,46,0.00,,,0.00,WUHU21623XXSP,2013-01-22 21:19:00,
2013-01-22 13:24:00,62.2,40.5,30.04,North,0,0.0,0.0,45,0.00,,,0.00,WUHU21623XXSP,2013-01-22 21:24:00,
2013-01-22 13:29:00,62.2,39.9,30.04,North,0,0.0,0.0,44,0.00,,,0.00,WUHU21623XXSP,2013-01-22 21:29:00,
2013-01-22 13:31:00,62.4,40.1,30.04,North,0,0.0,0.0,44,0.00,,,0.00,WUHU21623XXSP,2013-01-22 21:31:00,
2013-01-22 13:36:00,62.6,40.2,30.04,North,0,0.0,0.0,44,0.00,,,0.00,WUHU21623XXSP,2013-01-22 21:36:00,
2013-01-22 13:41:00,63.1,40.7,30.03,North,0,0.0,0.0,44,0.00,,,0.00,WUHU21623XXSP,2013-01-22 21:41:00,
2013-01-22 13:46:00,63.5,41.1,30.03,NNW,337,0.0,0.0,44,0.00,,,0.00,WUHU21623XXSP,2013-01-22 21:46:00,
2013-01-22 13:51:00,63.7,41.2,30.03,North,0,0.0,0.0,44,0.00,,,0.00,WUHU21623XXSP,2013-01-22 21:51:00,
2013-01-22 13:56:00,64.0,42.1,30.03,North,0,0.0,0.0,45,0.00,,,0.00,WUHU21623XXSP,2013-01-22 21:56:00,
2013-01-22 14:01:00,63.7,41.2,30.03,North,0,0.0,0.0,44,0.00,,,0.00,WUHU21623XXSP,2013-01-22 22:01:00,
2013-01-22 14:06:00,63.5,41.1,30.03,North,0,0.0,0.0,44,0.00,,,0.00,WUHU21623XXSP,2013-01-22 22:06:00,
2013-01-22 14:11:00,63.5,41.6,30.03,North,0,0.0,0.0,45,0.00,,,0.00,WUHU21623XXSP,2013-01-22 22:11:00,
2013-01-22 14:16:00,63.3,41.5,30.02,North,0,0.0,0.0,45,0.00,,,0.00,WUHU21623XXSP,2013-01-22 22:16:00,
2013-01-22 14:21:00,63.3,41.5,30.02,North,0,0.0,0.0,45,0.00,,,0.00,WUHU21623XXSP,2013-01-22 22:21:00,
2013-01-22 14:26:00,63.3,41.5,30.02,North,0,0.0,0.0,45,0.00,,,0.00,WUHU21623XXSP,2013-01-22 22:26:00,
2013-01-22 14:31:00,63.1,41.3,30.03,North,0,0.0,0.0,45,0.00,,,0.00,WUHU21623XXSP,2013-01-22 22:31:00,
2013-01-22 14:36:00,63.1,41.3,30.03,North,0,0.0,0.0,45,0.00,,,0.00,WUHU21623XXSP,2013-01-22 22:36:00,
2013-01-22 14:41:00,63.1,41.3,30.03,North,0,0.0,0.0,45,0.00,,,0.00,WUHU21623XXSP,2013-01-22 22:41:00,
2013-01-22 14:46:00,63.3,41.5,30.02,North,0,0.0,0.0,45,0.00,,,0.00,WUHU21623XXSP,2013-01-22 22:46:00,
2013-01-22 14:51:00,63.1,41.3,30.03,North,0,0.0,0.0,45,0.00,,,0.00,WUHU21623XXSP,2013-01-22 22:51:00,
2013-01-22 14:56:00,63.3,41.5,30.03,North,0,0.0,0.0,45,0.00,,,0.00,WUHU21623XXSP,2013-01-22 22:56:00,
2013-01-22 15:01:00,63.3,41.5,30.03,North,0,0.0,0.0,45,0.00,,,0.00,WUHU21623XXSP,2013-01-22 23:01:00,
2013-01-22 15:06:00,63.5,41.6,30.02,North,0,0.0,0.0,45,0.00,,,0.00,WUHU21623XXSP,2013-01-22 23:06:00,
2013-01-22 15:11:00,63.5,41.6,30.02,North,0,0.0,0.0,45,0.00,,,0.00,WUHU21623XXSP,2013-01-22 23:11:00,
2013-01-22 15:16:00,64.0,41.4,30.02,North,0,0.0,0.0,45,0.00,,,0.00,WUHU21623XXSP,2013-01-22 23:16:00,
2013-01-22 15:21:00,64.0,42.1,30.02,North,0,0.0,0.0,45,0.00,,,0.00,WUHU21623XXSP,2013-01-22 23:21:00,
2013-01-22 15:26:00,64.0,42.1,30.02,North,0,0.0,0.0,45,0.00,,,0.00,WUHU21623XXSP,2013-01-22 23:26:00,
2013-01-22 15:31:00,64.2,42.3,30.01,North,0,0.0,0.0,45,0.00,,,0.00,WUHU21623XXSP,2013-01-22 23:31:00,
2013-01-22 15:36:00,64.0,42.1,30.01,North,0,0.0,0.0,45,0.00,,,0.00,WUHU21623XXSP,2013-01-22 23:36:00,
2013-01-22 15:41:00,64.0,42.7,30.01,North,0,0.0,0.0,46,0.00,,,0.00,WUHU21623XXSP,2013-01-22 23:41:00,
2013-01-22 15:46:00,63.7,42.4,30.01,North,0,0.0,0.0,46,0.00,,,0.00,WUHU21623XXSP,2013-01-22 23:46:00,
2013-01-22 15:51:00,63.5,42.2,30.01,North,0,0.0,0.0,46,0.00,,,0.00,WUHU21623XXSP,2013-01-22 23:51:00,
2013-01-22 15:56:00,63.3,42.6,30.01,North,0,0.0,0.0,47,0.00,,,0.00,WUHU21623XXSP,2013-01-22 23:56:00,
2013-01-22 16:01:00,63.0,42.3,30.01,North,0,0.0,0.0,47,0.00,,,0.00,WUHU21623XXSP,2013-01-23 00:01:00,
2013-01-22 16:06:00,62.8,42.7,30.01,North,0,0.0,0.0,48,0.00,,,0.00,WUHU21623XXSP,2013-01-23 00:06:00,
2013-01-22 16:11:00,62.8,42.7,30.01,North,0,0.0,0.0,48,0.00,,,0.00,WUHU21623XXSP,2013-01-23 00:11:00,
2013-01-22 16:16:00,62.6,43.1,30.01,North,0,0.0,0.0,49,0.00,,,0.00,WUHU21623XXSP,2013-01-23 00:16:00,
2013-01-22 16:21:00,62.4,42.4,30.01,North,0,0.0,0.0,48,0.00,,,0.00,WUHU21623XXSP,2013-01-23 00:21:00,
2013-01-22 16:26:00,62.4,42.4,30.01,North,0,0.0,0.0,48,0.00,,,0.00,WUHU21623XXSP,2013-01-23 00:26:00,
2013-01-22 16:32:00,62.2,42.8,30.01,North,0,0.0,0.0,49,0.00,,,0.00,WUHU21623XXSP,2013-01-23 00:32:00,
2013-01-22 16:37:00,62.1,42.6,30.01,North,0,0.0,0.0,49,0.00,,,0.00,WUHU21623XXSP,2013-01-23 00:37:00,
2013-01-22 16:42:00,61.5,42.3,30.01,North,0,0.0,0.0,50,0.00,,,0.00,WUHU21623XXSP,2013-01-23 00:42:00,
2013-01-22 16:47:00,61.3,43.1,30.01,North,0,0.0,0.0,51,0.00,,,0.00,WUHU21623XXSP,2013-01-23 00:47:00,
2013-01-22 16:52:00,60.8,43.1,30.01,North,0,0.0,0.0,52,0.00,,,0.00,WUHU21623XXSP,2013-01-23 00:52:00,
2013-01-22 16:57:00,60.4,43.2,30.01,North,0,0.0,0.0,53,0.00,,,0.00,WUHU21623XXSP,2013-01-23 00:57:00,
2013-01-22 17:02:00,60.1,43.3,30.01,North,0,0.0,0.0,54,0.00,,,0.00,WUHU21623XXSP,2013-01-23 01:02:00,
2013-01-22 17:07:00,59.5,43.3,30.01,North,0,0.0,0.0,55,0.00,,,0.00,WUHU21623XXSP,2013-01-23 01:07:00,
2013-01-22 17:12:00,59.0,42.8,30.00,North,0,0.0,0.0,55,0.00,,,0.00,WUHU21623XXSP,2013-01-23 01:12:00,
2013-01-22 17:17:00,58.8,43.1,30.01,North,0,0.0,0.0,56,0.00,,,0.00,WUHU21623XXSP,2013-01-23 01:17:00,
2013-01-22 17:22:00,58.1,42.9,30.01,North,0,0.0,0.0,57,0.00,,,0.00,WUHU21623XXSP,2013-01-23 01:22:00,
2013-01-22 17:27:00,57.7,42.6,30.01,North,0,0.0,0.0,57,0.00,,,0.00,WUHU21623XXSP,2013-01-23 01:27:00,
2013-01-22 17:32:00,57.4,42.7,30.01,North,0,0.0,0.0,58,0.00,,,0.00,WUHU21623XXSP,2013-01-23 01:32:00,
2013-01-22 17:37:00,56.8,42.7,30.01,North,0,0.0,0.0,59,0.00,,,0.00,WUHU21623XXSP,2013-01-23 01:37:00,
2013-01-22 17:42:00,56.5,42.8,30.00,North,0,0.0,0.0,60,0.00,,,0.00,WUHU21623XXSP,2013-01-23 01:42:00,
2013-01-22 17:47:00,56.1,42.4,30.00,North,0,0.0,0.0,60,0.00,,,0.00,WUHU21623XXSP,2013-01-23 01:47:00,
2013-01-22 17:52:00,55.6,42.3,30.00,North,0,0.0,0.0,61,0.00,,,0.00,WUHU21623XXSP,2013-01-23 01:52:00,
2013-01-22 17:57:00,55.2,42.0,30.00,North,0,0.0,0.0,61,0.00,,,0.00,WUHU21623XXSP,2013-01-23 01:57:00,
2013-01-22 18:02:00,55.0,42.2,30.00,North,0,0.0,0.0,62,0.00,,,0.00,WUHU21623XXSP,2013-01-23 02:02:00,
2013-01-22 18:07:00,54.3,42.0,30.00,North,0,0.0,0.0,63,0.00,,,0.00,WUHU21623XXSP,2013-01-23 02:07:00,
2013-01-22 18:12:00,54.1,42.2,30.00,North,0,0.0,0.0,64,0.00,,,0.00,WUHU21623XXSP,2013-01-23 02:12:00,
2013-01-22 18:17:00,53.8,41.8,30.00,North,0,0.0,0.0,64,0.00,,,0.00,WUHU21623XXSP,2013-01-23 02:17:00,
2013-01-22 18:22:00,53.4,41.9,30.00,North,0,0.0,0.0,65,0.00,,,0.00,WUHU21623XXSP,2013-01-23 02:22:00,
2013-01-22 18:27:00,53.4,41.9,30.00,North,0,0.0,0.0,65,0.00,,,0.00,WUHU21623XXSP,2013-01-23 02:27:00,
2013-01-22 18:32:00,52.9,41.8,30.01,North,0,0.0,0.0,66,0.00,,,0.00,WUHU21623XXSP,2013-01-23 02:32:00,
2013-01-22 18:37:00,52.7,42.0,30.00,North,0,0.0,0.0,67,0.00,,,0.00,WUHU21623XXSP,2013-01-23 02:37:00,
2013-01-22 18:42:00,52.5,42.0,30.00,North,0,0.0,0.0,67,0.00,,,0.00,WUHU21623XXSP,2013-01-23 02:42:00,
2013-01-22 18:48:00,52.3,41.7,30.01,North,0,0.0,0.0,67,0.00,,,0.00,WUHU21623XXSP,2013-01-23 02:48:00,
2013-01-22 18:53:00,52.2,41.9,30.01,North,0,0.0,0.0,68,0.00,,,0.00,WUHU21623XXSP,2013-01-23 02:53:00,
2013-01-22 18:58:00,51.8,41.6,30.01,North,0,0.0,0.0,68,0.00,,,0.00,WUHU21623XXSP,2013-01-23 02:58:00,
2013-01-22 19:03:00,51.6,41.8,30.00,North,0,0.0,0.0,69,0.00,,,0.00,WUHU21623XXSP,2013-01-23 03:03:00,
2013-01-22 19:08:00,51.4,41.7,30.01,North,0,0.0,0.0,69,0.00,,,0.00,WUHU21623XXSP,2013-01-23 03:08:00,
2013-01-22 19:13:00,51.1,41.3,30.01,North,0,0.0,0.0,69,0.00,,,0.00,WUHU21623XXSP,2013-01-23 03:13:00,
2013-01-22 19:18:00,50.9,41.5,30.01,North,0,0.0,0.0,70,0.00,,,0.00,WUHU21623XXSP,2013-01-23 03:18:00,
2013-01-22 19:23:00,50.7,41.4,30.01,North,0,0.0,0.0,70,0.00,,,0.00,WUHU21623XXSP,2013-01-23 03:23:00,
2013-01-22 19:28:00,50.7,41.7,30.00,North,0,0.0,0.0,71,0.00,,,0.00,WUHU21623XXSP,2013-01-23 03:28:00,
2013-01-22 19:33:00,50.5,41.5,30.00,North,0,0.0,0.0,71,0.00,,,0.00,WUHU21623XXSP,2013-01-23 03:33:00,
2013-01-22 19:38:00,50.5,41.5,30.00,North,0,0.0,0.0,71,0.00,,,0.00,WUHU21623XXSP,2013-01-23 03:38:00,
2013-01-22 19:43:00,50.2,41.2,30.00,North,0,0.0,0.0,71,0.00,,,0.00,WUHU21623XXSP,2013-01-23 03:43:00,
2013-01-22 19:48:00,50.2,41.2,30.00,North,0,0.0,0.0,71,0.00,,,0.00,WUHU21623XXSP,2013-01-23 03:48:00,
2013-01-22 19:53:00,50.0,41.3,30.01,North,0,0.0,0.0,72,0.00,,,0.00,WUHU21623XXSP,2013-01-23 03:53:00,
2013-01-22 19:58:00,49.8,41.1,30.01,North,0,0.0,0.0,72,0.00,,,0.00,WUHU21623XXSP,2013-01-23 03:58:00,
2013-01-22 20:03:00,49.8,41.1,30.01,North,0,0.0,0.0,72,0.00,,,0.00,WUHU21623XXSP,2013-01-23 04:03:00,
2013-01-22 20:08:00,49.8,41.5,30.02,North,0,0.0,0.0,73,0.00,,,0.00,WUHU21623XXSP,2013-01-23 04:08:00,
2013-01-22 20:13:00,49.6,41.3,30.02,North,0,0.0,0.0,73,0.00,,,0.00,WUHU21623XXSP,2013-01-23 04:13:00,
2013-01-22 20:18:00,49.6,41.3,30.02,North,0,0.0,0.0,73,0.00,,,0.00,WUHU21623XXSP,2013-01-23 04:18:00,
2013-01-22 20:23:00,49.6,41.3,30.02,North,0,0.0,0.0,73,0.00,,,0.00,WUHU21623XXSP,2013-01-23 04:23:00,
2013-01-22 20:28:00,49.5,41.1,30.02,North,0,0.0,0.0,73,0.00,,,0.00,WUHU21623XXSP,2013-01-23 04:28:00,
2013-01-22 20:33:00,49.3,40.9,30.02,North,0,0.0,0.0,73,0.00,,,0.00,WUHU21623XXSP,2013-01-23 04:33:00,
2013-01-22 20:38:00,49.3,40.9,30.02,North,0,0.0,0.0,73,0.00,,,0.00,WUHU21623XXSP,2013-01-23 04:38:00,
2013-01-22 20:43:00,49.1,41.1,30.02,North,0,0.0,0.0,74,0.00,,,0.00,WUHU21623XXSP,2013-01-23 04:43:00,
2013-01-22 20:48:00,48.9,40.9,30.02,North,0,0.0,0.0,74,0.00,,,0.00,WUHU21623XXSP,2013-01-23 04:48:00,
2013-01-22 20:53:00,48.7,40.7,30.02,North,0,0.0,0.0,74,0.00,,,0.00,WUHU21623XXSP,2013-01-23 04:53:00,
2013-01-22 20:58:00,48.7,40.7,30.02,North,0,0.0,0.0,74,0.00,,,0.00,WUHU21623XXSP,2013-01-23 04:58:00,
2013-01-22 21:00:00,48.7,40.7,30.01,North,0,0.0,0.0,74,0.00,,,0.00,WUHU21623XXSP,2013-01-23 05:00:00,
2013-01-22 21:02:00,48.6,40.6,30.02,North,0,0.0,0.0,74,0.00,,,0.00,WUHU21623XXSP,2013-01-23 05:02:00,
2013-01-22 21:03:00,48.6,40.6,30.02,North,0,0.0,0.0,74,0.00,,,0.00,WUHU21623XXSP,2013-01-23 05:03:00,
2013-01-22 21:08:00,48.4,40.7,30.02,North,0,0.0,0.0,75,0.00,,,0.00,WUHU21623XXSP,2013-01-23 05:08:00,
2013-01-22 21:13:00,48.0,40.4,30.03,North,0,0.0,0.0,75,0.00,,,0.00,WUHU21623XXSP,2013-01-23 05:13:00,
2013-01-22 21:18:00,48.0,40.4,30.03,North,0,0.0,0.0,75,0.00,,,0.00,WUHU21623XXSP,2013-01-23 05:18:00,
2013-01-22 21:23:00,48.0,40.4,30.03,North,0,0.0,0.0,75,0.00,,,0.00,WUHU21623XXSP,2013-01-23 05:23:00,
2013-01-22 21:28:00,47.8,40.6,30.03,North,0,0.0,0.0,76,0.00,,,0.00,WUHU21623XXSP,2013-01-23 05:28:00,
2013-01-22 21:33:00,47.7,40.4,30.03,North,0,0.0,0.0,76,0.00,,,0.00,WUHU21623XXSP,2013-01-23 05:33:00,
2013-01-22 21:38:00,47.5,40.2,30.03,North,0,0.0,0.0,76,0.00,,,0.00,WUHU21623XXSP,2013-01-23 05:38:00,
2013-01-22 21:43:00,47.5,40.6,30.03,North,0,0.0,0.0,77,0.00,,,0.00,WUHU21623XXSP,2013-01-23 05:43:00,
2013-01-22 21:48:00,47.5,40.6,30.03,North,0,0.0,0.0,77,0.00,,,0.00,WUHU21623XXSP,2013-01-23 05:48:00,
2013-01-22 21:53:00,47.5,40.6,30.04,North,0,0.0,0.0,77,0.00,,,0.00,WUHU21623XXSP,2013-01-23 05:53:00,
2013-01-22 21:58:00,47.3,40.4,30.03,North,0,0.0,0.0,77,0.00,,,0.00,WUHU21623XXSP,2013-01-23 05:58:00,
2013-01-22 22:03:00,47.3,40.4,30.04,North,0,0.0,0.0,77,0.00,,,0.00,WUHU21623XXSP,2013-01-23 06:03:00,
2013-01-22 22:08:00,47.1,40.4,30.04,North,0,0.0,0.0,77,0.00,,,0.00,WUHU21623XXSP,2013-01-23 06:08:00,
2013-01-22 22:13:00,47.1,40.3,30.04,North,0,0.0,0.0,77,0.00,,,0.00,WUHU21623XXSP,2013-01-23 06:13:00,
2013-01-22 22:18:00,46.9,40.1,30.04,North,0,0.0,0.0,77,0.00,,,0.00,WUHU21623XXSP,2013-01-23 06:18:00,
2013-01-22 22:23:00,46.9,40.1,30.03,North,0,0.0,0.0,77,0.00,,,0.00,WUHU21623XXSP,2013-01-23 06:23:00,
2013-01-22 22:28:00,46.8,40.3,30.04,North,0,0.0,0.0,78,0.00,,,0.00,WUHU21623XXSP,2013-01-23 06:28:00,
2013-01-22 22:33:00,46.8,40.3,30.04,North,0,0.0,0.0,78,0.00,,,0.00,WUHU21623XXSP,2013-01-23 06:33:00,
2013-01-22 22:38:00,46.8,40.3,30.04,North,0,0.0,0.0,78,0.00,,,0.00,WUHU21623XXSP,2013-01-23 06:38:00,
2013-01-22 22:43:00,46.8,40.3,30.05,North,0,0.0,0.0,78,0.00,,,0.00,WUHU21623XXSP,2013-01-23 06:43:00,
2013-01-22 22:48:00,46.8,40.3,30.05,North,0,0.0,0.0,78,0.00,,,0.00,WUHU21623XXSP,2013-01-23 06:48:00,
2013-01-22 22:53:00,46.8,40.3,30.05,North,0,0.0,0.0,78,0.00,,,0.00,WUHU21623XXSP,2013-01-23 06:53:00,
2013-01-22 22:58:00,46.8,40.3,30.05,North,0,0.0,0.0,78,0.00,,,0.00,WUHU21623XXSP,2013-01-23 06:58:00,
2013-01-22 23:03:00,46.8,40.3,30.05,North,0,0.0,0.0,78,0.00,,,0.00,WUHU21623XXSP,2013-01-23 07:03:00,
2013-01-22 23:08:00,46.8,40.3,30.05,North,0,0.0,0.0,78,0.00,,,0.00,WUHU21623XXSP,2013-01-23 07:08:00,
2013-01-22 23:13:00,46.8,40.3,30.04,North,0,0.0,0.0,78,0.00,,,0.00,WUHU21623XXSP,2013-01-23 07:13:00,
2013-01-22 23:18:00,46.8,40.3,30.05,North,0,0.0,0.0,78,0.00,,,0.00,WUHU21623XXSP,2013-01-23 07:18:00,
2013-01-22 23:23:00,46.8,40.3,30.05,North,0,0.0,0.0,78,0.00,,,0.00,WUHU21623XXSP,2013-01-23 07:23:00,
2013-01-22 23:28:00,46.8,40.3,30.05,North,0,0.0,0.0,78,0.00,,,0.00,WUHU21623XXSP,2013-01-23 07:28:00,
2013-01-22 23:33:00,46.8,40.3,30.04,North,0,0.0,0.0,78,0.00,,,0.00,WUHU21623XXSP,2013-01-23 07:33:00,
2013-01-22 23:38:00,46.8,40.3,30.05,North,0,0.0,0.0,78,0.00,,,0.00,WUHU21623XXSP,2013-01-23 07:38:00,
2013-01-22 23:43:00,46.8,40.3,30.05,North,0,0.0,0.0,78,0.00,,,0.00,WUHU21623XXSP,2013-01-23 07:43:00,
2013-01-22 23:48:00,46.8,40.3,30.04,North,0,0.0,0.0,78,0.00,,,0.00,WUHU21623XXSP,2013-01-23 07:48:00,
2013-01-22 23:53:00,46.6,40.1,30.04,North,0,0.0,0.0,78,0.00,,,0.00,WUHU21623XXSP,2013-01-23 07:53:00,
2013-01-22 23:58:00,46.8,40.3,30.04,North,0,0.0,0.0,78,0.00,,,0.00,WUHU21623XXSP,2013-01-23 07:58:00,